Alamosa, Colorado
Current Conditions -  °F | °C
As of 5:52 AM on Friday 28 Nov 2014 (Local Time) from KALS Reporting Station
Clear Clear  
Wind Chill:   Ceiling: Unl
Heat Index:   Visibility: 10mi
Dew Point:   Wind: 5mph
Humidity: 80%   Direction: 290°WNW
Pressure: 30.27"   Gusts: NA
Location:  37.47°N, 105.87°W
Report Text: KALS 281252Z AUTO 29004KT 10SM CLR M13/M16 A3027 RMK AO2 SLP286 T11281156
Loading
Personal Weather Stations






























Interactive Weather Map New forecast layout! Learn more

10-Day Weather Forecast

Advertisements
Track Severe Weather on mobile